Time;durP1;ratioP1;P1;durP2;ratioP2;P2;SDS_P1;SDS_P2;PMS_P1;PMS_P2;Temp;Humidity;BMP_temperature;BMP_pressure;BME280_temperature;BME280_humidity;BME280_pressure;Samples;Min_cycle;Max_cycle;Signal;HPM_P1;HPM_P2
2021/12/02 00:00:49;;;;;;;3.13;1.10;;;6.20;99.90;;;;;;5075590;28;20052;-67
2021/12/02 00:03:16;;;;;;;1.85;0.82;;;6.30;99.90;;;;;;5077449;28;20406;-67
2021/12/02 00:05:43;;;;;;;2.40;0.88;;;6.30;99.90;;;;;;5077580;28;20553;-67
2021/12/02 00:08:10;;;;;;;2.38;0.90;;;6.30;99.90;;;;;;5077526;28;20052;-67
2021/12/02 00:10:40;;;;;;;3.53;0.90;;;6.30;99.90;;;;;;5076582;28;20053;-67
2021/12/02 00:13:11;;;;;;;2.13;0.90;;;6.30;99.90;;;;;;5058269;28;20106;-67
2021/12/02 00:15:45;;;;;;;2.45;1.00;;;6.30;99.90;;;;;;5076117;28;20056;-67
2021/12/02 00:21:19;;;;;;;2.90;0.95;;;6.30;99.90;;;;;;5033418;28;20308;-67
2021/12/02 00:23:52;;;;;;;5.50;1.48;;;6.20;99.90;;;;;;5033996;28;20080;-67
2021/12/02 00:26:21;;;;;;;1.48;0.80;;;6.30;99.90;;;;;;5055688;28;20135;-67
2021/12/02 00:28:54;;;;;;;2.10;1.13;;;6.30;99.90;;;;;;5089334;28;20048;-67
2021/12/02 00:31:23;;;;;;;3.13;1.00;;;6.30;99.90;;;;;;5093095;28;20118;-67
2021/12/02 00:33:52;;;;;;;5.22;1.10;;;6.30;99.90;;;;;;5076761;28;20505;-67
2021/12/02 00:36:21;;;;;;;3.42;0.95;;;6.30;99.90;;;;;;5075935;28;20049;-68
2021/12/02 00:38:48;;;;;;;3.33;1.15;;;6.30;99.90;;;;;;5076123;28;20090;-67
2021/12/02 00:41:17;;;;;;;3.92;1.27;;;6.30;99.90;;;;;;5075793;28;20053;-67
2021/12/02 00:43:46;;;;;;;5.05;1.63;;;6.30;99.90;;;;;;5075627;28;20044;-67
2021/12/02 00:46:17;;;;;;;4.25;1.20;;;6.20;99.90;;;;;;5074769;28;20586;-67
2021/12/02 00:48:45;;;;;;;6.78;1.10;;;6.20;99.90;;;;;;5075923;28;20459;-67
2021/12/02 00:51:13;;;;;;;3.80;1.05;;;6.20;99.90;;;;;;5075814;28;20052;-67
2021/12/02 00:53:44;;;;;;;2.15;0.73;;;6.20;99.90;;;;;;5075507;28;20045;-67
2021/12/02 00:56:13;;;;;;;5.10;1.45;;;6.30;99.90;;;;;;5074821;28;20075;-67
2021/12/02 00:58:40;;;;;;;4.97;1.48;;;6.20;99.90;;;;;;5075277;28;20044;-67
2021/12/02 01:01:10;;;;;;;3.42;1.10;;;6.20;99.90;;;;;;5075517;28;20508;-67
2021/12/02 01:03:39;;;;;;;3.53;1.33;;;6.20;99.90;;;;;;5075304;28;20053;-67
2021/12/02 01:06:07;;;;;;;1.90;1.00;;;6.20;99.90;;;;;;5074829;28;20231;-67
2021/12/02 01:08:36;;;;;;;2.30;0.98;;;6.20;99.90;;;;;;5075513;28;20053;-67
2021/12/02 01:11:04;;;;;;;3.72;1.30;;;6.20;99.90;;;;;;5073124;28;20056;-69
2021/12/02 01:13:31;;;;;;;3.42;1.10;;;6.20;99.90;;;;;;5072708;28;20197;-67
2021/12/02 01:15:58;;;;;;;3.83;1.27;;;6.20;99.90;;;;;;5072566;28;20535;-68
2021/12/02 01:18:25;;;;;;;3.47;1.10;;;6.20;99.90;;;;;;5072851;28;20048;-67
2021/12/02 01:20:54;;;;;;;4.13;1.10;;;6.10;99.90;;;;;;5072623;28;20094;-67
2021/12/02 01:23:23;;;;;;;3.63;1.45;;;6.10;99.90;;;;;;5072734;28;20044;-67
2021/12/02 01:25:55;;;;;;;6.43;1.70;;;6.10;99.90;;;;;;5072171;28;20416;-67
2021/12/02 01:28:24;;;;;;;3.92;1.20;;;6.10;99.90;;;;;;5072573;28;20466;-68
2021/12/02 01:30:51;;;;;;;3.50;1.40;;;6.00;99.90;;;;;;5072234;28;20496;-67
2021/12/02 01:33:20;;;;;;;2.85;1.38;;;6.00;99.90;;;;;;5071920;28;20075;-67
2021/12/02 01:35:50;;;;;;;2.95;1.33;;;6.00;99.90;;;;;;5071175;28;20496;-67
2021/12/02 01:38:18;;;;;;;4.05;1.30;;;6.00;99.90;;;;;;5071327;28;20090;-67
2021/12/02 01:40:46;;;;;;;3.55;1.52;;;6.00;99.90;;;;;;5072188;28;20101;-67
2021/12/02 01:43:18;;;;;;;4.03;1.83;;;6.00;99.90;;;;;;5071595;28;20092;-67
2021/12/02 01:45:46;;;;;;;6.10;1.60;;;6.00;99.90;;;;;;5071315;28;20106;-67
2021/12/02 01:48:21;;;;;;;3.38;1.48;;;5.90;99.90;;;;;;5072312;28;20045;-67
2021/12/02 01:51:00;;;;;;;6.80;1.65;;;5.90;99.90;;;;;;5071840;28;20098;-67
2021/12/02 01:53:33;;;;;;;3.78;1.27;;;5.80;99.90;;;;;;5071629;28;20052;-67
2021/12/02 01:56:09;;;;;;;4.03;1.70;;;5.80;99.90;;;;;;5070937;28;20121;-67
2021/12/02 01:58:40;;;;;;;;;;;5.90;99.90;;;;;;5072078;28;20056;-67
2021/12/02 02:01:14;;;;;;;5.80;1.80;;;5.80;99.90;;;;;;5071472;28;20358;-67
2021/12/02 02:03:42;;;;;;;5.93;2.00;;;5.80;99.90;;;;;;5071292;28;20577;-67
2021/12/02 02:06:10;;;;;;;6.22;2.00;;;5.80;99.90;;;;;;5070555;28;20141;-67
2021/12/02 02:08:44;;;;;;;4.28;1.70;;;5.80;99.90;;;;;;5071084;28;20044;-67
2021/12/02 02:11:11;;;;;;;5.28;1.70;;;5.80;99.90;;;;;;5070799;28;20478;-67
2021/12/02 02:13:40;;;;;;;5.93;1.73;;;5.70;99.90;;;;;;5070749;28;20044;-67
2021/12/02 02:16:07;;;;;;;3.97;1.85;;;5.70;99.90;;;;;;5070450;28;20056;-67
2021/12/02 02:18:34;;;;;;;6.03;1.90;;;5.70;99.90;;;;;;5071030;28;20048;-67
2021/12/02 02:21:06;;;;;;;6.15;2.03;;;5.70;99.90;;;;;;5070825;28;20095;-66
2021/12/02 02:23:38;;;;;;;4.82;2.00;;;5.70;99.90;;;;;;5070809;28;20052;-67
2021/12/02 02:26:05;;;;;;;3.88;2.05;;;5.60;99.90;;;;;;5070065;28;20052;-67
2021/12/02 02:28:33;;;;;;;3.55;1.90;;;5.70;99.90;;;;;;5070841;28;20067;-67
2021/12/02 02:31:00;;;;;;;4.57;1.83;;;5.60;99.90;;;;;;5070642;28;20091;-67
2021/12/02 02:33:34;;;;;;;4.45;1.98;;;5.60;99.90;;;;;;5070448;28;20105;-67
2021/12/02 02:36:03;;;;;;;7.22;1.88;;;5.60;99.90;;;;;;5069777;28;20048;-67
2021/12/02 02:38:30;;;;;;;5.20;2.30;;;5.50;99.90;;;;;;5070376;28;20468;-67
2021/12/02 02:40:59;;;;;;;6.43;2.03;;;5.50;99.90;;;;;;5069838;28;20048;-67
2021/12/02 02:43:27;;;;;;;3.85;1.80;;;5.50;99.90;;;;;;5070424;28;20105;-67
2021/12/02 02:45:54;;;;;;;4.60;2.08;;;5.50;99.90;;;;;;5069789;28;20147;-67
2021/12/02 02:48:21;;;;;;;3.63;1.65;;;5.50;99.90;;;;;;5070588;28;20064;-67
2021/12/02 02:50:48;;;;;;;6.40;2.00;;;5.50;99.90;;;;;;5070092;28;20048;-67
2021/12/02 02:53:21;;;;;;;6.65;2.08;;;5.50;99.90;;;;;;5070117;28;20052;-67
2021/12/02 02:55:55;;;;;;;6.60;1.90;;;5.40;99.90;;;;;;5069704;28;20052;-67
2021/12/02 02:58:29;;;;;;;5.72;1.80;;;5.40;99.90;;;;;;5070593;28;20053;-67
2021/12/02 03:01:03;;;;;;;4.07;1.70;;;5.30;99.90;;;;;;5073692;28;20045;-67
2021/12/02 03:03:37;;;;;;;7.28;1.40;;;5.30;99.90;;;;;;5088657;28;20056;-67
2021/12/02 03:06:27;;;;;;;4.65;1.58;;;5.20;99.90;;;;;;5074509;28;20412;-67
2021/12/02 03:09:00;;;;;;;2.63;1.33;;;5.10;99.90;;;;;;5070938;28;20071;-67
2021/12/02 03:11:39;;;;;;;3.47;1.17;;;5.10;99.90;;;;;;5150967;22;20044;-66
2021/12/02 03:14:11;;;;;;;4.17;1.20;;;5.00;99.90;;;;;;5049943;28;20056;-66
2021/12/02 03:16:44;;;;;;;3.50;1.10;;;5.00;99.90;;;;;;5049690;28;20060;-66
2021/12/02 03:19:12;;;;;;;4.43;1.73;;;4.90;99.90;;;;;;5049708;28;20242;-67
2021/12/02 03:21:40;;;;;;;2.17;1.20;;;4.90;99.90;;;;;;5050146;28;20547;-66
2021/12/02 03:24:08;;;;;;;2.93;1.10;;;4.90;99.90;;;;;;5049886;28;20111;-66
2021/12/02 03:26:36;;;;;;;4.40;1.30;;;4.80;99.90;;;;;;5049004;28;20103;-66
2021/12/02 03:29:04;;;;;;;2.83;0.93;;;4.80;99.90;;;;;;5049955;28;20053;-66
2021/12/02 03:31:32;;;;;;;1.40;0.80;;;4.80;99.90;;;;;;5049763;28;20526;-66
2021/12/02 03:34:00;;;;;;;3.57;1.10;;;4.80;99.90;;;;;;5049323;28;20115;-66
2021/12/02 03:36:27;;;;;;;2.90;1.20;;;4.70;99.90;;;;;;5049317;28;20083;-66
2021/12/02 03:38:55;;;;;;;2.13;1.00;;;4.70;99.90;;;;;;5049867;28;20144;-66
2021/12/02 03:41:24;;;;;;;4.57;1.30;;;4.70;99.90;;;;;;5053168;28;20133;-66
2021/12/02 03:43:52;;;;;;;3.97;1.30;;;4.70;99.90;;;;;;5057435;28;20059;-65
2021/12/02 03:46:21;;;;;;;4.37;1.50;;;4.70;99.90;;;;;;5048444;28;20132;-66
2021/12/02 03:48:49;;;;;;;2.70;1.10;;;4.70;99.90;;;;;;5048793;28;20496;-66
2021/12/02 03:51:17;;;;;;;4.73;1.47;;;4.70;99.90;;;;;;5049097;28;20103;-66
2021/12/02 03:53:44;;;;;;;2.73;1.33;;;4.70;99.90;;;;;;5049246;28;20083;-66
2021/12/02 03:56:12;;;;;;;3.73;1.33;;;4.70;99.90;;;;;;5048264;28;20535;-66
2021/12/02 03:58:42;;;;;;;5.90;1.40;;;4.70;99.90;;;;;;5048435;28;20049;-66
2021/12/02 04:01:10;;;;;;;3.47;1.47;;;4.70;99.90;;;;;;5049432;28;20095;-66
2021/12/02 04:03:37;;;;;;;2.30;1.20;;;4.70;99.90;;;;;;5051167;28;20052;-66
2021/12/02 04:06:06;;;;;;;4.47;1.40;;;4.70;99.90;;;;;;5061133;28;20048;-66
2021/12/02 04:08:40;;;;;;;7.37;1.63;;;4.70;99.90;;;;;;5068684;28;20055;-66
2021/12/02 04:11:17;;;;;;;5.15;1.48;;;4.70;99.90;;;;;;5053977;28;20476;-66
2021/12/02 04:13:53;;;;;;;5.82;1.38;;;4.70;99.90;;;;;;5030243;28;20402;-66
2021/12/02 04:16:22;;;;;;;4.00;1.55;;;4.70;99.90;;;;;;5028813;28;20064;-66
2021/12/02 04:18:49;;;;;;;2.70;1.17;;;4.70;99.90;;;;;;5029419;28;20057;-66
2021/12/02 04:21:16;;;;;;;3.07;1.37;;;4.70;99.90;;;;;;5043631;28;20106;-66
2021/12/02 04:23:43;;;;;;;3.83;1.30;;;4.70;99.90;;;;;;5030134;28;20053;-67
2021/12/02 04:26:10;;;;;;;4.20;1.33;;;4.60;99.90;;;;;;5028674;28;20141;-66
2021/12/02 04:28:37;;;;;;;5.67;1.40;;;4.60;99.90;;;;;;5029033;28;20084;-66
2021/12/02 04:31:06;;;;;;;5.20;1.50;;;4.60;99.90;;;;;;5028789;28;20049;-66
2021/12/02 04:33:33;;;;;;;3.27;1.40;;;4.60;99.90;;;;;;5028912;28;20053;-66
2021/12/02 04:36:01;;;;;;;3.97;1.40;;;4.60;99.90;;;;;;5028225;28;20116;-66
2021/12/02 04:38:28;;;;;;;3.50;1.33;;;4.60;99.90;;;;;;5028319;28;20140;-66
2021/12/02 04:40:56;;;;;;;4.80;1.40;;;4.60;99.90;;;;;;5028977;28;20053;-66
2021/12/02 04:43:23;;;;;;;3.17;1.57;;;4.60;99.90;;;;;;5028580;28;20076;-66
2021/12/02 04:45:50;;;;;;;4.40;1.37;;;4.60;99.90;;;;;;5028147;28;20128;-66
2021/12/02 04:48:18;;;;;;;7.20;1.83;;;4.70;99.90;;;;;;5032653;28;20049;-67
2021/12/02 04:50:46;;;;;;;4.73;1.37;;;4.70;99.90;;;;;;5032232;28;20049;-66
2021/12/02 04:53:13;;;;;;;4.00;1.57;;;4.70;99.90;;;;;;5032222;28;20100;-66
2021/12/02 04:55:41;;;;;;;5.13;1.10;;;4.70;99.90;;;;;;5031470;28;20049;-66
2021/12/02 04:58:08;;;;;;;4.50;1.40;;;4.70;99.90;;;;;;5032129;28;20178;-66
2021/12/02 05:00:35;;;;;;;3.58;1.40;;;4.70;99.90;;;;;;5032375;28;20084;-66
2021/12/02 05:03:04;;;;;;;3.07;1.40;;;4.60;99.90;;;;;;5032259;28;20053;-66
2021/12/02 05:05:33;;;;;;;4.28;1.38;;;4.70;99.90;;;;;;5031617;28;20459;-66
2021/12/02 05:08:00;;;;;;;3.23;1.60;;;4.60;99.90;;;;;;5032368;28;20104;-66
2021/12/02 05:10:28;;;;;;;3.13;1.42;;;4.60;99.90;;;;;;5032239;28;20059;-66
2021/12/02 05:12:55;;;;;;;4.40;1.33;;;4.60;99.90;;;;;;5032263;28;20049;-66
2021/12/02 05:15:22;;;;;;;3.83;1.57;;;4.60;99.90;;;;;;5031583;28;20099;-66
2021/12/02 05:17:49;;;;;;;4.97;1.23;;;4.60;99.90;;;;;;5031939;28;20049;-66
2021/12/02 05:20:16;;;;;;;5.67;1.20;;;4.60;99.90;;;;;;5031942;28;20049;-66
2021/12/02 05:22:44;;;;;;;2.13;1.10;;;4.60;99.90;;;;;;5032024;28;20057;-66
2021/12/02 05:25:11;;;;;;;2.30;1.20;;;4.60;99.90;;;;;;5031116;28;20489;-66
2021/12/02 05:27:38;;;;;;;4.57;1.10;;;4.60;99.90;;;;;;5032328;28;20559;-66
2021/12/02 05:30:09;;;;;;;3.07;1.10;;;4.60;99.90;;;;;;5031854;28;20103;-66
2021/12/02 05:32:36;;;;;;;4.17;1.50;;;4.60;99.90;;;;;;5031555;28;20061;-67
2021/12/02 05:35:04;;;;;;;3.07;1.87;;;4.60;99.90;;;;;;5031024;28;20095;-66
2021/12/02 05:37:31;;;;;;;5.17;1.30;;;4.60;99.90;;;;;;5031912;28;20501;-66
2021/12/02 05:39:59;;;;;;;6.83;1.60;;;4.60;99.90;;;;;;5031895;28;20131;-66
2021/12/02 05:42:26;;;;;;;5.40;1.50;;;4.60;99.90;;;;;;5031300;28;20332;-66
2021/12/02 05:44:54;;;;;;;7.10;1.83;;;4.60;99.90;;;;;;5030706;28;20053;-66
2021/12/02 05:47:21;;;;;;;5.50;1.90;;;4.60;99.90;;;;;;5031382;28;20049;-66
2021/12/02 05:49:48;;;;;;;10.03;2.20;;;4.70;99.90;;;;;;5031267;28;20050;-66
2021/12/02 05:52:15;;;;;;;8.95;2.63;;;4.60;99.90;;;;;;5031172;28;20053;-65
2021/12/02 05:54:42;;;;;;;11.57;2.60;;;4.70;99.90;;;;;;5030909;28;20045;-67
2021/12/02 05:57:10;;;;;;;5.73;1.80;;;4.50;99.90;;;;;;5031058;28;20063;-66
2021/12/02 05:59:37;;;;;;;6.60;1.80;;;4.50;99.90;;;;;;5031247;28;20548;-65
2021/12/02 06:02:07;;;;;;;8.90;2.23;;;4.20;99.90;;;;;;5031342;28;20057;-66
2021/12/02 06:04:36;;;;;;;14.47;2.50;;;3.90;99.90;;;;;;5031650;28;20053;-65
2021/12/02 06:07:03;;;;;;;6.60;2.70;;;3.80;99.90;;;;;;5031186;28;20103;-66
2021/12/02 06:09:30;;;;;;;6.10;2.17;;;3.80;99.90;;;;;;5031593;28;20045;-66
2021/12/02 06:11:57;;;;;;;11.87;2.63;;;3.70;99.90;;;;;;5031294;28;20045;-67
2021/12/02 06:14:25;;;;;;;5.57;1.97;;;3.70;99.90;;;;;;5042690;28;20057;-66
2021/12/02 06:16:52;;;;;;;6.30;1.70;;;3.70;99.90;;;;;;5047926;28;20076;-66
2021/12/02 06:19:19;;;;;;;6.83;2.20;;;3.70;99.90;;;;;;5038969;28;20053;-67
2021/12/02 06:21:47;;;;;;;7.80;2.10;;;3.70;99.90;;;;;;5032085;28;20042;-65
2021/12/02 06:24:14;;;;;;;3.87;1.40;;;3.80;99.90;;;;;;5031686;28;20410;-65
2021/12/02 06:26:41;;;;;;;5.13;1.60;;;3.70;99.90;;;;;;5030269;28;20057;-65
2021/12/02 06:29:08;;;;;;;7.50;2.40;;;3.60;99.90;;;;;;5031860;28;20123;-66
2021/12/02 06:31:37;;;;;;;6.47;2.20;;;3.60;99.90;;;;;;5031476;28;20502;-66
2021/12/02 06:34:04;;;;;;;5.33;2.00;;;3.60;99.90;;;;;;5031258;28;20054;-65
2021/12/02 06:36:31;;;;;;;12.67;2.40;;;3.50;99.90;;;;;;5030911;28;20085;-66
2021/12/02 06:38:58;;;;;;;6.73;2.37;;;3.60;99.90;;;;;;5030907;28;20095;-66
2021/12/02 06:41:25;;;;;;;6.23;2.53;;;3.50;99.90;;;;;;5031480;28;20359;-66
2021/12/02 06:43:52;;;;;;;6.50;2.30;;;3.50;99.90;;;;;;5031740;28;20464;-65
2021/12/02 06:46:19;;;;;;;6.83;2.20;;;3.50;99.90;;;;;;5030434;28;20143;-65
2021/12/02 06:48:48;;;;;;;6.07;2.17;;;3.50;99.90;;;;;;5030844;28;20085;-66
2021/12/02 06:51:15;;;;;;;9.43;2.37;;;3.40;99.90;;;;;;5030482;28;20060;-65
2021/12/02 06:53:42;;;;;;;8.73;2.83;;;3.30;99.90;;;;;;5030250;28;20045;-66
2021/12/02 06:56:10;;;;;;;10.80;2.17;;;3.10;99.90;;;;;;5029885;28;20065;-66
2021/12/02 06:58:37;;;;;;;3.63;1.63;;;3.10;99.90;;;;;;5030773;28;20464;-66
2021/12/02 07:01:04;;;;;;;9.07;2.53;;;3.00;99.90;;;;;;5031290;28;20544;-66
2021/12/02 07:03:31;;;;;;;5.37;2.03;;;3.00;99.90;;;;;;5031518;28;20072;-66
2021/12/02 07:05:59;;;;;;;5.97;2.10;;;3.00;99.90;;;;;;5031655;28;20089;-66
2021/12/02 07:08:29;;;;;;;6.80;2.77;;;3.00;99.90;;;;;;5030959;28;20104;-66
2021/12/02 07:10:58;;;;;;;5.67;2.03;;;2.80;99.90;;;;;;5030650;28;20049;-66
2021/12/02 07:13:25;;;;;;;6.37;1.70;;;2.70;99.90;;;;;;5031450;28;20061;-66
2021/12/02 07:15:53;;;;;;;5.87;1.90;;;2.70;99.90;;;;;;5030667;28;20095;-66
2021/12/02 07:18:20;;;;;;;6.43;2.07;;;2.70;99.90;;;;;;5031353;28;20049;-67
2021/12/02 07:20:50;;;;;;;6.67;2.10;;;2.70;99.90;;;;;;5031974;28;20421;-67
2021/12/02 07:23:20;;;;;;;5.97;2.00;;;2.70;99.90;;;;;;5031817;28;20115;-67
2021/12/02 07:25:48;;;;;;;5.20;1.60;;;2.70;99.90;;;;;;5029809;28;20057;-67
2021/12/02 07:28:17;;;;;;;7.90;1.97;;;2.70;99.90;;;;;;5030379;28;20053;-67
2021/12/02 07:30:45;;;;;;;5.70;1.60;;;2.70;99.90;;;;;;5030659;28;20050;-67
2021/12/02 07:33:14;;;;;;;4.53;2.17;;;2.60;99.90;;;;;;5030132;28;20422;-68
2021/12/02 07:35:41;;;;;;;7.67;2.67;;;2.40;99.90;;;;;;5030010;28;20495;-67
2021/12/02 07:38:08;;;;;;;8.43;2.60;;;2.30;99.90;;;;;;5030942;28;20516;-67
2021/12/02 07:40:41;;;;;;;4.60;1.90;;;2.30;99.90;;;;;;5030396;28;20204;-66
2021/12/02 07:43:08;;;;;;;5.40;2.00;;;2.30;99.90;;;;;;5031137;28;20123;-67
2021/12/02 07:45:35;;;;;;;6.57;1.93;;;2.30;99.90;;;;;;5029709;28;20053;-67
2021/12/02 07:48:04;;;;;;;7.60;2.07;;;2.30;99.90;;;;;;5029671;28;20107;-68
2021/12/02 07:50:32;;;;;;;3.47;1.50;;;2.20;99.90;;;;;;5031441;28;20058;-67
2021/12/02 07:53:01;;;;;;;7.03;2.17;;;2.20;99.90;;;;;;5030144;28;20053;-67
2021/12/02 07:55:30;;;;;;;5.57;2.10;;;2.20;99.90;;;;;;5029478;28;20049;-68
2021/12/02 07:57:59;;;;;;;6.33;2.20;;;2.30;99.90;;;;;;5029320;28;20072;-67
2021/12/02 08:00:28;;;;;;;5.40;2.07;;;2.30;99.90;;;;;;5029046;28;20053;-68
2021/12/02 08:02:56;;;;;;;7.47;2.00;;;2.20;99.90;;;;;;5029569;28;20046;-68
2021/12/02 08:05:24;;;;;;;5.77;2.03;;;2.30;99.90;;;;;;5029025;28;20084;-69
2021/12/02 08:07:52;;;;;;;4.13;1.90;;;2.40;99.90;;;;;;5030438;28;20053;-69
2021/12/02 08:10:19;;;;;;;4.37;1.90;;;2.30;99.90;;;;;;5031130;28;20045;-68
2021/12/02 08:12:49;;;;;;;4.93;1.90;;;2.10;99.90;;;;;;5032288;28;20103;-68
2021/12/02 08:15:20;;;;;;;6.77;2.27;;;2.20;99.90;;;;;;5029490;28;20093;-70
2021/12/02 08:17:47;;;;;;;8.27;2.27;;;2.20;99.90;;;;;;5029350;28;20053;-68
2021/12/02 08:20:15;;;;;;;8.77;3.27;;;2.20;99.90;;;;;;5030247;28;20316;-67
2021/12/02 08:22:42;;;;;;;9.03;3.30;;;2.20;99.90;;;;;;5033364;28;20131;-68
2021/12/02 08:25:12;;;;;;;12.17;4.67;;;2.20;99.90;;;;;;5032738;28;20099;-68
2021/12/02 08:27:40;;;;;;;11.00;3.83;;;2.20;99.90;;;;;;5033151;28;20103;-69
2021/12/02 08:30:08;;;;;;;13.10;4.57;;;2.20;99.90;;;;;;5033393;28;20053;-70
2021/12/02 08:32:40;;;;;;;6.53;2.67;;;2.30;99.90;;;;;;5032991;28;20045;-68
2021/12/02 08:35:07;;;;;;;9.70;4.27;;;2.10;99.90;;;;;;5032671;28;20053;-68
2021/12/02 08:37:37;;;;;;;8.97;3.20;;;1.90;99.90;;;;;;5032968;28;20088;-67
2021/12/02 08:40:06;;;;;;;6.50;2.63;;;1.70;99.90;;;;;;5032431;28;20061;-67
2021/12/02 08:42:33;;;;;;;6.40;2.70;;;1.70;99.90;;;;;;5033014;28;20042;-68
2021/12/02 08:45:00;;;;;;;8.10;2.20;;;1.60;99.90;;;;;;5032119;28;20053;-70
2021/12/02 08:47:28;;;;;;;5.17;2.33;;;1.90;99.90;;;;;;5033145;28;20041;-68
2021/12/02 08:49:58;;;;;;;5.73;2.40;;;2.10;99.90;;;;;;5033204;28;20412;-68
2021/12/02 08:52:27;;;;;;;6.63;2.27;;;2.10;99.90;;;;;;5032570;28;20067;-69
2021/12/02 08:54:55;;;;;;;2.83;1.47;;;2.30;99.90;;;;;;5032435;28;20196;-68
2021/12/02 08:57:24;;;;;;;7.37;2.50;;;2.10;99.90;;;;;;5033146;28;20509;-68
2021/12/02 08:59:51;;;;;;;4.63;2.00;;;2.10;99.90;;;;;;5032826;28;20054;-71
2021/12/02 09:02:19;;;;;;;7.20;2.40;;;2.20;99.90;;;;;;5032952;28;20041;-68
2021/12/02 09:04:45;;;;;;;5.80;2.20;;;2.20;99.90;;;;;;5031934;28;20057;-69
2021/12/02 09:07:15;;;;;;;5.77;2.20;;;2.10;99.90;;;;;;5032574;28;20107;-68
2021/12/02 09:09:42;;;;;;;7.60;2.67;;;2.20;99.90;;;;;;5031928;28;20148;-70
2021/12/02 09:12:09;;;;;;;7.23;3.00;;;2.00;99.90;;;;;;5091839;22;20098;-70
2021/12/02 09:14:36;;;;;;;6.43;3.27;;;2.10;99.90;;;;;;5078893;28;20108;-70
2021/12/02 09:17:05;;;;;;;8.10;3.60;;;2.20;99.90;;;;;;5067073;28;20049;-70
2021/12/02 09:19:32;;;;;;;10.10;3.73;;;2.30;99.90;;;;;;5065040;28;20041;-70
2021/12/02 09:22:00;;;;;;;8.27;3.67;;;2.20;99.90;;;;;;5052209;28;20052;-70
2021/12/02 09:24:28;;;;;;;8.27;3.20;;;2.30;99.90;;;;;;5051958;28;20106;-70
2021/12/02 09:26:56;;;;;;;7.83;3.03;;;2.20;99.90;;;;;;5051434;28;20103;-70
2021/12/02 09:29:23;;;;;;;8.57;3.20;;;2.10;99.90;;;;;;5051813;28;20103;-70
2021/12/02 09:31:52;;;;;;;5.63;2.67;;;2.10;99.90;;;;;;5051296;28;20041;-70
2021/12/02 09:34:19;;;;;;;5.03;2.20;;;2.10;99.90;;;;;;5052138;28;20049;-70
2021/12/02 09:36:46;;;;;;;5.73;2.40;;;2.20;99.90;;;;;;5051506;28;20053;-70
2021/12/02 09:39:14;;;;;;;3.67;1.70;;;2.30;99.90;;;;;;5052035;28;20364;-70
2021/12/02 09:41:45;;;;;;;3.93;2.00;;;2.40;99.90;;;;;;5051403;28;20079;-70
2021/12/02 09:44:13;;;;;;;3.40;1.50;;;2.50;99.90;;;;;;5051716;28;20053;-70
2021/12/02 09:46:41;;;;;;;2.97;1.40;;;2.70;99.90;;;;;;5051009;28;20056;-70
2021/12/02 09:49:10;;;;;;;2.90;1.10;;;2.80;99.90;;;;;;5051723;28;20094;-70
2021/12/02 09:51:45;;;;;;;1.80;1.00;;;2.80;99.90;;;;;;5051780;28;20049;-70
2021/12/02 09:54:16;;;;;;;1.80;1.10;;;2.80;99.90;;;;;;5051347;28;20563;-70
2021/12/02 09:56:47;;;;;;;2.77;1.30;;;2.90;99.90;;;;;;5051519;28;20060;-70
2021/12/02 09:59:24;;;;;;;5.87;1.63;;;2.90;99.90;;;;;;5051499;28;20053;-70
2021/12/02 10:01:54;;;;;;;3.80;1.63;;;3.10;99.90;;;;;;5051777;28;20095;-69
2021/12/02 10:04:22;;;;;;;2.47;1.23;;;2.90;99.90;;;;;;5051662;28;20565;-70
2021/12/02 10:06:50;;;;;;;2.23;1.30;;;3.10;99.90;;;;;;5050716;28;20574;-70
2021/12/02 10:09:22;;;;;;;2.23;1.23;;;2.90;99.90;;;;;;5051555;28;20049;-70
2021/12/02 10:11:53;;;;;;;1.60;0.97;;;2.90;99.90;;;;;;5051134;28;20055;-70
2021/12/02 10:14:23;;;;;;;3.77;1.10;;;2.80;99.90;;;;;;5051138;28;20139;-69
2021/12/02 10:16:53;;;;;;;2.60;1.40;;;2.70;99.90;;;;;;5050881;28;20300;-69
2021/12/02 10:19:21;;;;;;;6.43;2.47;;;2.80;99.90;;;;;;5051029;28;20063;-69
2021/12/02 10:21:54;;;;;;;9.13;2.93;;;2.60;99.90;;;;;;5051185;28;20075;-69
2021/12/02 10:24:24;;;;;;;6.17;2.23;;;2.50;99.90;;;;;;5051232;28;20057;-69
2021/12/02 10:26:56;;;;;;;3.70;1.77;;;2.70;99.90;;;;;;5050456;28;20049;-69
2021/12/02 10:29:27;;;;;;;3.27;1.37;;;2.60;99.90;;;;;;5051094;28;20114;-69
2021/12/02 10:32:07;;;;;;;3.43;1.47;;;2.60;99.90;;;;;;5050296;28;20045;-69
2021/12/02 10:34:51;;;;;;;3.53;1.40;;;2.70;99.90;;;;;;5050720;28;20091;-70
2021/12/02 10:37:19;;;;;;;3.10;1.33;;;2.60;99.90;;;;;;5052434;28;20061;-69
2021/12/02 10:39:58;;;;;;;4.03;1.77;;;2.50;99.90;;;;;;5051363;28;20470;-70
2021/12/02 10:42:27;;;;;;;4.20;1.80;;;2.60;99.90;;;;;;5050325;28;20460;-69
2021/12/02 10:44:57;;;;;;;3.00;1.70;;;2.60;99.90;;;;;;5050263;28;20094;-70
2021/12/02 10:47:25;;;;;;;7.00;1.80;;;2.50;99.90;;;;;;5050953;28;20075;-69
2021/12/02 10:49:55;;;;;;;3.50;1.50;;;2.60;99.90;;;;;;5050771;28;20456;-69
2021/12/02 10:52:24;;;;;;;3.07;1.50;;;2.70;99.90;;;;;;5050398;28;20102;-69
2021/12/02 10:54:58;;;;;;;6.67;2.10;;;2.70;99.90;;;;;;5049623;28;20049;-69
2021/12/02 10:57:28;;;;;;;5.30;1.80;;;2.60;99.90;;;;;;5050744;28;20063;-70
2021/12/02 10:59:57;;;;;;;6.77;1.90;;;2.80;99.90;;;;;;5050067;28;20516;-70
2021/12/02 11:02:28;;;;;;;4.10;1.37;;;2.70;99.90;;;;;;5050232;28;20108;-69
2021/12/02 11:04:59;;;;;;;3.83;1.47;;;2.70;99.90;;;;;;5050376;28;20471;-69
2021/12/02 11:07:29;;;;;;;5.07;1.73;;;2.70;99.90;;;;;;5050026;28;20067;-69
2021/12/02 11:09:58;;;;;;;2.13;1.00;;;2.80;99.90;;;;;;5050309;28;20146;-69
2021/12/02 11:12:29;;;;;;;4.90;1.47;;;2.70;99.90;;;;;;5049605;28;20528;-69
2021/12/02 11:15:15;;;;;;;4.87;1.33;;;2.90;99.90;;;;;;5049263;28;20449;-69
2021/12/02 11:17:50;;;;;;;3.40;1.30;;;3.10;99.90;;;;;;5049795;28;20083;-69
2021/12/02 11:20:20;;;;;;;3.33;1.37;;;2.90;99.90;;;;;;5050221;28;20307;-69
2021/12/02 11:22:48;;;;;;;3.10;1.70;;;2.80;99.90;;;;;;5049738;28;20114;-69
2021/12/02 11:25:15;;;;;;;4.77;1.80;;;2.90;99.90;;;;;;5049249;28;20049;-69
2021/12/02 11:27:46;;;;;;;3.60;1.40;;;2.90;99.90;;;;;;5049639;28;20409;-69
2021/12/02 11:30:19;;;;;;;3.70;1.63;;;3.30;99.90;;;;;;5049490;28;20103;-69
2021/12/02 11:32:56;;;;;;;4.20;1.80;;;3.60;99.90;;;;;;5049655;28;20049;-69
2021/12/02 11:35:27;;;;;;;3.47;1.70;;;3.60;99.90;;;;;;5049041;28;20539;-69
2021/12/02 11:37:58;;;;;;;3.37;1.70;;;3.30;99.90;;;;;;5050137;28;20499;-69
2021/12/02 11:40:28;;;;;;;5.00;1.73;;;3.30;99.90;;;;;;5049895;28;20052;-70
2021/12/02 11:42:57;;;;;;;5.83;2.10;;;3.30;99.90;;;;;;5049221;28;20614;-69
2021/12/02 11:45:26;;;;;;;4.37;1.73;;;3.30;99.90;;;;;;5049077;28;20049;-69
2021/12/02 11:47:55;;;;;;;5.90;2.13;;;3.30;99.90;;;;;;5049445;28;20509;-69
2021/12/02 11:50:24;;;;;;;4.27;1.97;;;3.20;99.90;;;;;;5049445;28;20080;-69
2021/12/02 11:52:51;;;;;;;4.80;1.90;;;3.20;99.90;;;;;;5049243;28;20098;-69
2021/12/02 11:55:21;;;;;;;4.50;1.93;;;3.20;99.90;;;;;;5048051;28;20458;-69
2021/12/02 11:57:49;;;;;;;4.63;2.00;;;3.20;99.90;;;;;;5049348;28;20094;-69
2021/12/02 12:00:20;;;;;;;4.63;1.50;;;3.30;99.90;;;;;;5049530;28;20068;-69
2021/12/02 12:02:52;;;;;;;4.03;1.83;;;3.50;99.90;;;;;;5049243;28;20068;-69
2021/12/02 12:05:24;;;;;;;3.40;1.70;;;3.40;99.90;;;;;;5048756;28;20049;-69
2021/12/02 12:07:51;;;;;;;5.70;1.90;;;3.40;99.90;;;;;;5049308;28;20552;-69
2021/12/02 12:10:25;;;;;;;5.47;1.90;;;3.50;99.90;;;;;;5051708;28;20053;-69
2021/12/02 12:12:53;;;;;;;6.20;2.40;;;3.50;99.90;;;;;;5051232;28;20045;-69
2021/12/02 12:15:40;;;;;;;4.80;1.97;;;3.50;99.90;;;;;;5048839;28;20470;-69
2021/12/02 12:18:08;;;;;;;;;;;3.60;99.90;;;;;;5049405;28;20053;-69
2021/12/02 12:21:01;;;;;;;4.17;2.00;;;3.60;99.90;;;;;;5049539;28;20161;-69
2021/12/02 12:23:33;;;;;;;5.23;2.27;;;3.40;99.90;;;;;;5049205;28;20060;-69
2021/12/02 12:26:29;;;;;;;4.53;2.07;;;3.60;99.90;;;;;;5048583;28;20404;-69
2021/12/02 12:29:31;;;;;;;5.17;2.17;;;3.50;99.90;;;;;;5032618;28;20098;-69
2021/12/02 12:35:11;;;;;;;4.97;2.30;;;3.50;99.90;;;;;;5031773;28;20084;-69
2021/12/02 12:37:54;;;;;;;5.20;2.10;;;3.50;99.90;;;;;;5049268;28;20572;-69
2021/12/02 12:40:27;;;;;;;5.70;2.30;;;3.50;99.90;;;;;;5049283;28;20061;-69
2021/12/02 12:43:24;;;;;;;7.97;2.10;;;3.50;99.90;;;;;;5048823;28;20115;-69
2021/12/02 12:46:11;;;;;;;5.13;2.10;;;3.60;99.90;;;;;;5048566;28;20103;-69
2021/12/02 12:48:40;;;;;;;6.50;2.85;;;3.60;99.90;;;;;;5049364;28;20053;-69
2021/12/02 12:51:29;;;;;;;6.20;2.93;;;3.70;99.90;;;;;;5048995;28;20110;-69
2021/12/02 12:53:58;;;;;;;9.50;3.17;;;3.80;99.90;;;;;;5043130;28;20098;-69
2021/12/02 12:56:34;;;;;;;4.87;2.60;;;3.70;99.90;;;;;;5048878;28;20045;-69
2021/12/02 12:59:15;;;;;;;5.80;2.58;;;3.70;99.90;;;;;;5051160;28;20518;-69
2021/12/02 13:01:55;;;;;;;10.17;2.63;;;3.70;99.90;;;;;;5049786;28;20049;-69
2021/12/02 13:04:25;;;;;;;5.63;2.30;;;3.70;99.90;;;;;;5048836;28;20493;-69
2021/12/02 13:07:20;;;;;;;6.57;3.23;;;3.70;99.90;;;;;;5048851;28;20052;-69
2021/12/02 13:09:54;;;;;;;5.33;2.60;;;3.70;99.90;;;;;;5045927;28;20060;-69
2021/12/02 13:12:46;;;;;;;5.33;2.63;;;3.90;99.90;;;;;;5051921;28;20076;-72
2021/12/02 13:15:17;;;;;;;5.83;2.83;;;4.00;99.90;;;;;;5053517;28;20064;-69
2021/12/02 13:17:46;;;;;;;5.97;2.87;;;4.10;99.90;;;;;;5052713;28;20136;-70